createdAt,value
2023-05-08T00:01:51.470Z,97871.67
2023-05-08T00:04:20.691Z,97870.88
2023-05-08T00:06:50.037Z,97875.33
2023-05-08T00:09:18.074Z,97875.85
2023-05-08T00:11:46.207Z,97874.06
2023-05-08T00:14:15.436Z,97870.64
2023-05-08T00:16:43.962Z,97864.45
2023-05-08T00:19:11.959Z,97858.48
2023-05-08T00:21:39.969Z,97852.96
2023-05-08T00:24:08.695Z,97849.70
2023-05-08T00:26:36.682Z,97846.08
2023-05-08T00:29:06.560Z,97847.51
2023-05-08T00:31:35.687Z,97844.64
2023-05-08T00:34:03.797Z,97846.31
2023-05-08T00:36:32.536Z,97850.55
2023-05-08T00:39:00.653Z,97858.29
2023-05-08T00:41:28.752Z,97865.26
2023-05-08T00:43:56.911Z,97863.38
2023-05-08T00:46:26.356Z,97867.57
2023-05-08T00:48:54.766Z,97879.20
2023-05-08T00:51:23.106Z,97879.46
2023-05-08T00:53:51.296Z,97880.88
2023-05-08T00:56:21.379Z,97875.28
2023-05-08T00:58:51.314Z,97877.27
2023-05-08T01:01:19.507Z,97884.42
2023-05-08T01:03:48.912Z,97883.16
2023-05-08T01:06:17.098Z,97883.55
2023-05-08T01:08:46.083Z,97877.51
2023-05-08T01:11:35.860Z,97880.34
2023-05-08T01:14:21.553Z,97883.33
2023-05-08T01:16:59.234Z,97878.83
2023-05-08T01:19:53.503Z,97873.27
2023-05-08T01:22:46.680Z,97870.04
2023-05-08T01:25:36.575Z,97873.34
2023-05-08T01:28:22.365Z,97873.17
2023-05-08T01:31:16.163Z,97873.70
2023-05-08T01:33:52.865Z,97877.23
2023-05-08T01:36:51.823Z,97875.09
2023-05-08T01:39:35.956Z,97873.73
2023-05-08T01:43:03.733Z,97874.17
2023-05-08T01:45:44.981Z,97868.82
2023-05-08T01:48:21.749Z,97866.14
2023-05-08T01:50:57.196Z,97865.97
2023-05-08T01:53:31.833Z,97864.94
2023-05-08T01:56:08.347Z,97862.95
2023-05-08T01:58:37.305Z,97866.19
2023-05-08T02:01:06.198Z,97861.28
2023-05-08T02:03:35.314Z,97858.39
2023-05-08T02:06:04.810Z,97860.07
2023-05-08T02:08:34.712Z,97862.98
2023-05-08T02:11:07.064Z,97866.52
2023-05-08T02:13:36.346Z,97870.56
2023-05-08T02:16:07.240Z,97872.80
2023-05-08T02:18:38.678Z,97874.44
2023-05-08T02:21:09.630Z,97874.42
2023-05-08T02:23:38.571Z,97874.40
2023-05-08T02:26:08.790Z,97875.17
2023-05-08T02:28:37.219Z,97873.48
2023-05-08T02:31:06.129Z,97869.27
2023-05-08T02:33:38.003Z,97867.90
2023-05-08T02:36:08.127Z,97865.30
2023-05-08T02:38:38.901Z,97866.05
2023-05-08T02:41:09.367Z,97865.89
2023-05-08T02:43:38.059Z,97866.15
2023-05-08T02:46:19.844Z,97869.62
2023-05-08T02:49:03.680Z,97873.58
2023-05-08T02:51:47.413Z,97877.16
2023-05-08T02:54:25.630Z,97875.65
2023-05-08T02:57:00.191Z,97867.52
2023-05-08T02:59:37.835Z,97866.60
2023-05-08T03:02:12.398Z,97865.19
2023-05-08T03:04:50.129Z,97860.71
2023-05-08T03:07:21.846Z,97862.83
2023-05-08T03:09:57.292Z,97869.40
2023-05-08T03:12:29.169Z,97868.69
2023-05-08T03:15:19.501Z,97868.66
2023-05-08T03:17:52.903Z,97869.38
2023-05-08T03:20:23.718Z,97872.27
2023-05-08T03:22:55.979Z,97878.71
2023-05-08T03:25:26.022Z,97883.17
2023-05-08T03:27:54.917Z,97884.27
2023-05-08T03:30:25.274Z,97886.41
2023-05-08T03:33:01.962Z,97888.05
2023-05-08T03:35:34.509Z,97887.58
2023-05-08T03:38:03.126Z,97889.14
2023-05-08T03:40:31.580Z,97890.61
2023-05-08T03:43:01.262Z,97893.21
2023-05-08T03:45:31.476Z,97893.73
2023-05-08T03:48:00.567Z,97896.64
2023-05-08T03:50:29.124Z,97898.78
2023-05-08T03:52:59.558Z,97897.94
2023-05-08T03:55:27.888Z,97896.27
2023-05-08T03:58:35.719Z,97894.02
2023-05-08T04:01:25.511Z,97890.81
2023-05-08T04:04:01.656Z,97893.88
2023-05-08T04:06:48.800Z,97892.61
2023-05-08T04:09:38.344Z,97895.20
2023-05-08T04:12:20.509Z,97901.21
2023-05-08T04:15:05.066Z,97901.06
2023-05-08T04:17:42.745Z,97903.15
2023-05-08T04:20:16.594Z,97901.48
2023-05-08T04:22:48.566Z,97902.89
2023-05-08T04:25:19.082Z,97904.80
2023-05-08T04:27:51.207Z,97905.92
2023-05-08T04:30:20.538Z,97900.88
2023-05-08T04:32:50.193Z,97899.39
2023-05-08T04:35:18.434Z,97896.27
2023-05-08T04:37:48.136Z,97901.66
2023-05-08T04:40:16.880Z,97908.67
2023-05-08T04:42:47.779Z,97913.15
2023-05-08T04:45:18.595Z,97918.59
2023-05-08T04:47:46.673Z,97924.21
2023-05-08T04:50:15.117Z,97923.98
2023-05-08T04:52:43.360Z,97923.69
2023-05-08T04:55:12.283Z,97922.16
2023-05-08T04:57:44.678Z,97920.77
2023-05-08T05:00:17.281Z,97915.86
2023-05-08T05:02:48.028Z,97915.84
2023-05-08T05:05:16.145Z,97914.16
2023-05-08T05:07:44.458Z,97914.86
2023-05-08T05:10:13.377Z,97916.88
2023-05-08T05:12:41.906Z,97917.34
2023-05-08T05:15:12.101Z,97914.08
2023-05-08T05:17:41.016Z,97912.59
2023-05-08T05:20:11.639Z,97908.10
2023-05-08T05:22:39.885Z,97908.42
2023-05-08T05:25:11.342Z,97909.02
2023-05-08T05:27:39.917Z,97903.91
2023-05-08T05:30:08.815Z,97902.91
2023-05-08T05:32:38.119Z,97902.07
2023-05-08T05:35:08.257Z,97902.15
2023-05-08T05:37:37.404Z,97898.67
2023-05-08T05:40:06.284Z,97900.03
2023-05-08T05:42:35.443Z,97900.89
2023-05-08T05:45:04.072Z,97896.77
2023-05-08T05:47:32.415Z,97898.41
2023-05-08T05:50:02.076Z,97899.92
2023-05-08T05:52:32.114Z,97904.73
2023-05-08T05:55:00.422Z,97913.51
2023-05-08T05:57:29.807Z,97914.52
2023-05-08T06:00:00.025Z,97910.66
2023-05-08T06:02:29.021Z,97907.41
2023-05-08T06:04:57.902Z,97912.21
2023-05-08T06:07:25.975Z,97910.42
2023-05-08T06:09:54.349Z,97902.48
2023-05-08T06:12:23.507Z,97902.66
2023-05-08T06:14:53.179Z,97908.08
2023-05-08T06:17:22.349Z,97904.82
2023-05-08T06:19:56.068Z,97900.28
2023-05-08T06:22:24.666Z,97901.46
2023-05-08T06:24:54.142Z,97905.21
2023-05-08T06:27:25.174Z,97897.54
2023-05-08T06:29:54.222Z,97895.42
2023-05-08T06:32:22.752Z,97895.00
2023-05-08T06:34:53.659Z,97902.14
2023-05-08T06:37:21.783Z,97904.67
2023-05-08T06:40:00.261Z,97907.41
2023-05-08T06:42:32.332Z,97905.90
2023-05-08T06:45:02.932Z,97912.83
2023-05-08T06:47:31.428Z,97924.55
2023-05-08T06:50:00.714Z,97919.17
2023-05-08T06:52:31.429Z,97916.59
2023-05-08T06:55:00.193Z,97919.91
2023-05-08T06:57:30.410Z,97931.98
2023-05-08T07:00:00.264Z,97938.36
2023-05-08T07:02:28.499Z,97944.23
2023-05-08T07:04:59.806Z,97937.66
2023-05-08T07:07:29.049Z,97940.31
2023-05-08T07:09:57.311Z,97936.89
2023-05-08T07:12:25.728Z,97941.33
2023-05-08T07:14:56.632Z,97930.80
2023-05-08T07:17:26.985Z,97932.40
2023-05-08T07:19:55.192Z,97938.04
2023-05-08T07:22:24.302Z,97933.02
2023-05-08T07:24:53.191Z,97917.09
2023-05-08T07:27:21.791Z,97918.07
2023-05-08T07:29:51.273Z,97910.71
2023-05-08T07:32:19.541Z,97916.73
2023-05-08T07:34:48.268Z,97920.86
2023-05-08T07:37:18.883Z,97927.66
2023-05-08T07:39:49.216Z,97933.54
2023-05-08T07:42:18.778Z,97934.54
2023-05-08T07:44:54.247Z,97940.52
2023-05-08T07:47:23.550Z,97948.99
2023-05-08T07:49:53.031Z,97950.90
2023-05-08T07:52:22.015Z,97950.52
2023-05-08T07:54:52.102Z,97946.83
2023-05-08T07:57:26.060Z,97948.63
2023-05-08T07:59:54.208Z,97943.83
2023-05-08T08:02:22.875Z,97937.45
2023-05-08T08:04:51.468Z,97941.73
2023-05-08T08:07:20.576Z,97938.86
2023-05-08T08:09:48.962Z,97934.33
2023-05-08T08:12:17.288Z,97933.02
2023-05-08T08:14:47.459Z,97925.09
2023-05-08T08:17:16.250Z,97921.34
2023-05-08T08:19:44.661Z,97927.05
2023-05-08T08:22:14.068Z,97929.21
2023-05-08T08:24:42.139Z,97929.78
2023-05-08T08:27:10.633Z,97926.69
2023-05-08T08:29:38.848Z,97924.20
2023-05-08T08:32:07.149Z,97924.56
2023-05-08T08:34:35.760Z,97926.61
2023-05-08T08:37:08.264Z,97927.21
2023-05-08T08:39:36.554Z,97932.44
2023-05-08T08:42:10.330Z,97937.86
2023-05-08T08:44:40.052Z,97936.90
2023-05-08T08:47:13.388Z,97938.15
2023-05-08T08:49:47.933Z,97937.06
2023-05-08T08:52:26.678Z,97935.45
2023-05-08T08:55:00.157Z,97935.84
2023-05-08T08:57:33.914Z,97953.62
2023-05-08T09:00:05.543Z,97951.29
2023-05-08T09:02:36.105Z,97939.37
2023-05-08T09:05:07.729Z,97951.06
2023-05-08T09:07:36.310Z,97957.43
2023-05-08T09:10:07.769Z,97942.75
2023-05-08T09:12:35.948Z,97946.35
2023-05-08T09:15:08.163Z,97945.54
2023-05-08T09:17:51.193Z,97942.15
2023-05-08T09:20:22.889Z,97942.70
2023-05-08T09:22:53.108Z,97935.80
2023-05-08T09:25:21.201Z,97934.02
2023-05-08T09:27:49.893Z,97943.17
2023-05-08T09:30:18.854Z,97948.52
2023-05-08T09:32:49.198Z,97941.45
2023-05-08T09:35:18.180Z,97932.06
2023-05-08T09:37:47.668Z,97938.98
2023-05-08T09:40:21.437Z,97945.11
2023-05-08T09:42:51.088Z,97948.42
2023-05-08T09:45:29.426Z,97940.14
2023-05-08T09:47:59.315Z,97951.59
2023-05-08T09:50:42.388Z,97956.98
2023-05-08T09:53:12.531Z,97955.59
2023-05-08T09:55:48.063Z,97963.14
2023-05-08T09:58:16.356Z,97970.34
2023-05-08T10:00:44.996Z,97955.75
2023-05-08T10:03:14.774Z,97949.52
2023-05-08T10:05:43.931Z,97949.84
2023-05-08T10:08:26.786Z,97951.67
2023-05-08T10:11:04.175Z,97955.21
2023-05-08T10:13:33.181Z,97961.33
2023-05-08T10:16:02.387Z,97959.36
2023-05-08T10:18:33.945Z,97949.02
2023-05-08T10:21:07.452Z,97946.70
2023-05-08T10:23:38.654Z,97934.89
2023-05-08T10:26:16.368Z,97936.54
2023-05-08T10:28:57.518Z,97935.75
2023-05-08T10:31:28.354Z,97930.56
2023-05-08T10:34:01.613Z,97922.19
2023-05-08T10:36:31.148Z,97930.52
2023-05-08T10:39:00.358Z,97939.54
2023-05-08T10:41:29.600Z,97937.21
2023-05-08T10:44:03.193Z,97923.42
2023-05-08T10:46:42.329Z,97929.85
2023-05-08T10:49:29.106Z,97950.77
2023-05-08T10:52:17.683Z,97941.44
2023-05-08T10:55:09.708Z,97944.02
2023-05-08T10:57:39.852Z,97929.95
2023-05-08T11:00:09.017Z,97942.96
2023-05-08T11:02:38.523Z,97946.85
2023-05-08T11:05:23.814Z,97956.09
2023-05-08T11:08:17.383Z,97944.69
2023-05-08T11:11:11.148Z,97944.55
2023-05-08T11:13:49.558Z,97960.58
2023-05-08T11:16:18.849Z,97956.73
2023-05-08T11:19:18.282Z,97952.15
2023-05-08T11:22:18.732Z,97961.54
2023-05-08T11:24:58.175Z,97950.96
2023-05-08T11:27:51.313Z,97953.59
2023-05-08T11:30:36.304Z,97954.34
2023-05-08T11:33:07.565Z,97959.13
2023-05-08T11:35:58.844Z,97962.41
2023-05-08T11:38:39.089Z,97968.16
2023-05-08T11:41:27.244Z,97965.20
2023-05-08T11:43:58.093Z,97963.64
2023-05-08T11:46:35.642Z,97967.09
2023-05-08T11:49:04.379Z,97972.61
2023-05-08T11:51:33.793Z,97980.88
2023-05-08T11:54:03.139Z,97983.52
2023-05-08T11:56:31.951Z,97983.29
2023-05-08T11:59:10.097Z,97987.19
2023-05-08T12:01:38.728Z,97993.45
2023-05-08T12:04:09.553Z,97992.14
2023-05-08T12:06:40.624Z,97989.64
2023-05-08T12:09:12.924Z,97987.11
2023-05-08T12:11:46.012Z,97985.23
2023-05-08T12:14:19.018Z,97989.00
2023-05-08T12:16:48.833Z,97989.02
2023-05-08T12:19:17.124Z,97998.64
2023-05-08T12:21:49.659Z,98005.58
2023-05-08T12:24:23.737Z,98003.48
2023-05-08T12:26:58.537Z,97990.80
2023-05-08T12:29:28.545Z,97997.16
2023-05-08T12:31:57.413Z,97994.27
2023-05-08T12:34:29.010Z,97999.82
2023-05-08T12:37:05.344Z,97990.72
2023-05-08T12:39:37.963Z,97988.63
2023-05-08T12:42:06.887Z,97987.63
2023-05-08T12:44:35.017Z,97990.80
2023-05-08T12:47:06.298Z,97990.45
2023-05-08T12:49:37.894Z,97993.95
2023-05-08T12:52:08.374Z,98000.00
2023-05-08T12:54:41.675Z,97999.86
2023-05-08T12:57:11.735Z,97982.30
2023-05-08T12:59:42.962Z,97974.73
2023-05-08T13:02:14.390Z,97988.41
2023-05-08T13:04:42.993Z,97987.84
2023-05-08T13:07:12.971Z,97979.92
2023-05-08T13:09:57.304Z,97977.84
2023-05-08T13:12:26.988Z,97964.63
2023-05-08T13:14:56.979Z,97959.36
2023-05-08T13:17:25.459Z,97954.47
2023-05-08T13:19:53.828Z,97956.55
2023-05-08T13:22:26.905Z,97956.14
2023-05-08T13:24:55.913Z,97958.71
2023-05-08T13:27:24.384Z,97957.21
2023-05-08T13:29:52.889Z,97961.60
2023-05-08T13:32:21.410Z,97963.00
2023-05-08T13:34:51.629Z,97966.82
2023-05-08T13:37:21.459Z,97966.09
2023-05-08T13:39:52.038Z,97975.13
2023-05-08T13:42:20.464Z,97977.80
2023-05-08T13:44:51.030Z,97973.39
2023-05-08T13:47:19.526Z,97975.57
2023-05-08T13:49:48.973Z,97974.85
2023-05-08T13:52:19.701Z,97976.15
2023-05-08T13:54:48.012Z,97974.95
2023-05-08T13:57:17.511Z,97975.80
2023-05-08T13:59:46.817Z,97976.48
2023-05-08T14:02:18.285Z,97980.84
2023-05-08T14:04:47.039Z,97983.99
2023-05-08T14:07:15.939Z,97982.07
2023-05-08T14:09:45.513Z,97989.06
2023-05-08T14:12:15.064Z,97988.09
2023-05-08T14:14:44.579Z,97988.85
2023-05-08T14:17:14.725Z,97988.80
2023-05-08T14:19:57.649Z,97996.12
2023-05-08T14:22:29.408Z,97995.41
2023-05-08T14:25:00.829Z,97999.18
2023-05-08T14:27:29.864Z,97996.34
2023-05-08T14:29:58.780Z,98000.85
2023-05-08T14:32:29.276Z,97999.95
2023-05-08T14:34:58.128Z,98002.44
2023-05-08T14:37:29.455Z,98001.61
2023-05-08T14:39:59.557Z,98000.87
2023-05-08T14:42:27.971Z,98006.88
2023-05-08T14:44:56.646Z,98011.28
2023-05-08T14:47:27.289Z,98013.19
2023-05-08T14:49:59.203Z,98017.70
2023-05-08T14:52:29.513Z,98023.40
2023-05-08T14:54:59.251Z,98024.85
2023-05-08T14:57:31.707Z,98026.67
2023-05-08T15:00:00.241Z,98032.20
2023-05-08T15:02:29.011Z,98036.66
2023-05-08T15:05:03.188Z,98038.55
2023-05-08T15:07:37.204Z,98040.79
2023-05-08T15:10:06.485Z,98041.80
2023-05-08T15:12:35.789Z,98043.34
2023-05-08T15:15:04.800Z,98043.44
2023-05-08T15:17:37.100Z,98047.70
2023-05-08T15:20:06.371Z,98050.73
2023-05-08T15:22:34.492Z,98050.59
2023-05-08T15:25:03.198Z,98054.42
2023-05-08T15:27:32.305Z,98050.55
2023-05-08T15:30:00.746Z,98055.40
2023-05-08T15:32:28.992Z,98060.06
2023-05-08T15:34:57.276Z,98056.04
2023-05-08T15:37:25.807Z,98053.52
2023-05-08T15:39:54.021Z,98052.13
2023-05-08T15:42:22.156Z,98056.21
2023-05-08T15:44:55.036Z,98057.58
2023-05-08T15:47:24.611Z,98060.69
2023-05-08T15:49:53.775Z,98064.86
2023-05-08T15:52:22.873Z,98065.70
2023-05-08T15:54:52.445Z,98067.27
2023-05-08T15:57:20.646Z,98065.64
2023-05-08T15:59:50.181Z,98067.78
2023-05-08T16:02:18.404Z,98072.42
2023-05-08T16:04:46.677Z,98077.79
2023-05-08T16:07:14.731Z,98081.25
2023-05-08T16:09:43.197Z,98082.50
2023-05-08T16:12:11.365Z,98085.56
2023-05-08T16:14:40.352Z,98085.11
2023-05-08T16:17:08.619Z,98089.51
2023-05-08T16:19:39.227Z,98095.27
2023-05-08T16:22:07.597Z,98101.50
2023-05-08T16:24:35.807Z,98103.55
2023-05-08T16:27:06.543Z,98105.42
2023-05-08T16:29:39.029Z,98104.31
2023-05-08T16:32:08.161Z,98107.09
2023-05-08T16:34:36.830Z,98105.35
2023-05-08T16:37:06.276Z,98104.94
2023-05-08T16:39:34.931Z,98102.52
2023-05-08T16:42:06.318Z,98102.02
2023-05-08T16:44:34.678Z,98105.54
2023-05-08T16:47:03.801Z,98109.25
2023-05-08T16:49:34.636Z,98109.33
2023-05-08T16:52:05.852Z,98115.16
2023-05-08T16:54:34.149Z,98114.76
2023-05-08T16:57:02.883Z,98118.27
2023-05-08T16:59:31.283Z,98125.31
2023-05-08T17:01:59.359Z,98127.29
2023-05-08T17:04:29.661Z,98130.98
2023-05-08T17:07:00.037Z,98133.63
2023-05-08T17:09:28.244Z,98137.61
2023-05-08T17:11:58.273Z,98134.41
2023-05-08T17:14:28.329Z,98141.06
2023-05-08T17:16:56.532Z,98143.15
2023-05-08T17:19:27.340Z,98147.39
2023-05-08T17:21:58.962Z,98156.64
2023-05-08T17:24:30.564Z,98163.56
2023-05-08T17:26:59.375Z,98172.08
2023-05-08T17:29:27.567Z,98175.54
2023-05-08T17:31:57.520Z,98179.14
2023-05-08T17:34:27.037Z,98181.36
2023-05-08T17:36:56.663Z,98186.36
2023-05-08T17:39:25.953Z,98190.44
2023-05-08T17:41:55.520Z,98196.14
2023-05-08T17:44:23.545Z,98204.88
2023-05-08T17:46:51.714Z,98210.67
2023-05-08T17:49:19.809Z,98211.66
2023-05-08T17:51:47.980Z,98220.94
2023-05-08T17:54:16.412Z,98226.92
2023-05-08T17:56:45.103Z,98229.18
2023-05-08T17:59:13.174Z,98228.05
2023-05-08T18:01:41.382Z,98231.79
2023-05-08T18:04:11.807Z,98234.45
2023-05-08T18:06:40.533Z,98237.14
2023-05-08T18:09:09.688Z,98240.63
2023-05-08T18:11:37.791Z,98243.25
2023-05-08T18:14:09.957Z,98248.71
2023-05-08T18:16:38.186Z,98252.11
2023-05-08T18:19:06.409Z,98256.70
2023-05-08T18:21:34.803Z,98260.97
2023-05-08T18:24:03.070Z,98261.58
2023-05-08T18:26:32.330Z,98264.65
2023-05-08T18:29:00.745Z,98270.36
2023-05-08T18:31:28.885Z,98280.79
2023-05-08T18:33:57.532Z,98282.86
2023-05-08T18:36:25.715Z,98289.01
2023-05-08T18:38:55.418Z,98292.40
2023-05-08T18:41:23.559Z,98295.39
2023-05-08T18:43:51.841Z,98301.20
2023-05-08T18:46:19.933Z,98299.11
2023-05-08T18:48:48.387Z,98297.05
2023-05-08T18:51:16.601Z,98299.80
2023-05-08T18:53:44.696Z,98307.45
2023-05-08T18:56:12.824Z,98310.79
2023-05-08T18:58:41.286Z,98312.14
2023-05-08T19:01:09.781Z,98313.09
2023-05-08T19:03:38.498Z,98313.17
2023-05-08T19:06:06.749Z,98319.16
2023-05-08T19:08:34.728Z,98318.20
2023-05-08T19:11:02.937Z,98321.61
2023-05-08T19:13:31.500Z,98326.77
2023-05-08T19:15:59.999Z,98325.95
2023-05-08T19:18:30.235Z,98326.78
2023-05-08T19:20:58.347Z,98327.78
2023-05-08T19:23:26.299Z,98329.22
2023-05-08T19:25:54.427Z,98331.80
2023-05-08T19:28:22.510Z,98336.79
2023-05-08T19:30:50.641Z,98337.82
2023-05-08T19:33:21.425Z,98338.67
2023-05-08T19:35:49.877Z,98342.27
2023-05-08T19:38:19.028Z,98342.10
2023-05-08T19:40:56.502Z,98342.80
2023-05-08T19:43:26.508Z,98344.61
2023-05-08T19:45:56.052Z,98347.67
2023-05-08T19:48:24.604Z,98352.88
2023-05-08T19:50:54.825Z,98352.20
2023-05-08T19:53:23.896Z,98353.14
2023-05-08T19:55:52.189Z,98356.53
2023-05-08T19:58:20.339Z,98354.14
2023-05-08T20:00:51.667Z,98354.31
2023-05-08T20:03:20.497Z,98354.91
2023-05-08T20:05:48.692Z,98355.98
2023-05-08T20:08:16.938Z,98356.51
2023-05-08T20:10:48.845Z,98364.30
2023-05-08T20:13:17.549Z,98364.07
2023-05-08T20:15:45.888Z,98364.64
2023-05-08T20:18:14.664Z,98361.59
2023-05-08T20:20:43.753Z,98361.63
2023-05-08T20:23:12.252Z,98359.41
2023-05-08T20:25:40.346Z,98356.98
2023-05-08T20:28:08.370Z,98352.19
2023-05-08T20:30:38.769Z,98350.58
2023-05-08T20:33:07.944Z,98354.42
2023-05-08T20:35:36.172Z,98362.36
2023-05-08T20:38:04.287Z,98368.89
2023-05-08T20:40:32.321Z,98372.60
2023-05-08T20:43:00.396Z,98378.86
2023-05-08T20:45:28.457Z,98375.45
2023-05-08T20:47:57.798Z,98379.95
2023-05-08T20:50:26.120Z,98381.79
2023-05-08T20:52:54.500Z,98384.65
2023-05-08T20:55:22.685Z,98388.80
2023-05-08T20:57:50.860Z,98385.34
2023-05-08T21:00:19.282Z,98382.14
2023-05-08T21:02:47.525Z,98386.69
2023-05-08T21:05:15.958Z,98382.52
2023-05-08T21:07:44.160Z,98389.91
2023-05-08T21:10:13.191Z,98394.29
2023-05-08T21:12:41.705Z,98393.81
2023-05-08T21:15:09.913Z,98392.83
2023-05-08T21:17:38.157Z,98399.66
2023-05-08T21:20:07.204Z,98399.19
2023-05-08T21:22:35.324Z,98397.89
2023-05-08T21:25:15.881Z,98396.15
2023-05-08T21:27:44.309Z,98399.41
2023-05-08T21:30:15.506Z,98400.89
2023-05-08T21:32:45.370Z,98399.85
2023-05-08T21:35:13.969Z,98399.25
2023-05-08T21:37:42.118Z,98405.44
2023-05-08T21:40:11.453Z,98406.31
2023-05-08T21:42:39.898Z,98407.54
2023-05-08T21:45:08.454Z,98404.89
2023-05-08T21:47:36.638Z,98405.20
2023-05-08T21:50:04.942Z,98403.34
2023-05-08T21:52:33.214Z,98403.98
2023-05-08T21:55:01.241Z,98405.80
2023-05-08T21:57:29.315Z,98404.33
2023-05-08T21:59:57.745Z,98404.73
2023-05-08T22:02:26.095Z,98407.51
2023-05-08T22:04:54.215Z,98413.47
2023-05-08T22:07:22.303Z,98417.52
2023-05-08T22:09:50.391Z,98418.74
2023-05-08T22:12:18.531Z,98416.63
2023-05-08T22:14:46.667Z,98410.73
2023-05-08T22:17:15.336Z,98407.64
2023-05-08T22:19:43.338Z,98410.11
2023-05-08T22:22:11.339Z,98410.55
2023-05-08T22:24:39.385Z,98410.05
2023-05-08T22:27:07.426Z,98402.38
2023-05-08T22:29:35.602Z,98402.67
2023-05-08T22:32:03.770Z,98402.14
2023-05-08T22:34:31.955Z,98399.14
2023-05-08T22:37:00.023Z,98400.30
2023-05-08T22:39:28.119Z,98401.80
2023-05-08T22:41:59.143Z,98403.48
2023-05-08T22:44:27.304Z,98405.52
2023-05-08T22:46:55.584Z,98405.34
2023-05-08T22:49:23.813Z,98405.27
2023-05-08T22:51:51.849Z,98405.73
2023-05-08T22:54:20.589Z,98405.77
2023-05-08T22:56:48.751Z,98405.52
2023-05-08T22:59:16.677Z,98405.11
2023-05-08T23:01:44.820Z,98405.27
2023-05-08T23:04:15.056Z,98404.35
2023-05-08T23:06:43.359Z,98405.83
2023-05-08T23:09:11.416Z,98400.37
2023-05-08T23:11:39.492Z,98395.96
2023-05-08T23:14:07.671Z,98394.70
2023-05-08T23:16:35.811Z,98394.96
2023-05-08T23:19:04.708Z,98395.50
2023-05-08T23:21:34.059Z,98395.35
2023-05-08T23:24:02.049Z,98397.45
2023-05-08T23:26:30.092Z,98393.21
2023-05-08T23:28:58.300Z,98391.93
2023-05-08T23:31:26.389Z,98388.67
2023-05-08T23:33:54.491Z,98387.40
2023-05-08T23:36:22.664Z,98384.60
2023-05-08T23:38:50.794Z,98384.57
2023-05-08T23:41:18.806Z,98388.42
2023-05-08T23:43:46.837Z,98385.77
2023-05-08T23:46:14.949Z,98381.89
2023-05-08T23:48:43.082Z,98386.08
2023-05-08T23:51:11.092Z,98387.96
2023-05-08T23:53:39.157Z,98388.96
2023-05-08T23:56:07.418Z,98389.83
2023-05-08T23:58:35.630Z,98387.20
